sensor_id;sensor_type;location;lat;lon;timestamp;P1;durP1;ratioP1;P2;durP2;ratioP2
68234;SDS011;55052;52.056;5.296;2023-11-19T00:00:08;14.50;;;5.75;;
68234;SDS011;55052;52.056;5.296;2023-11-19T00:02:39;15.43;;;5.60;;
68234;SDS011;55052;52.056;5.296;2023-11-19T00:05:07;17.02;;;5.70;;
68234;SDS011;55052;52.056;5.296;2023-11-19T00:07:39;14.52;;;5.50;;
68234;SDS011;55052;52.056;5.296;2023-11-19T00:12:38;18.38;;;4.80;;
68234;SDS011;55052;52.056;5.296;2023-11-19T00:15:07;13.73;;;5.27;;
68234;SDS011;55052;52.056;5.296;2023-11-19T00:17:39;18.48;;;4.75;;
68234;SDS011;55052;52.056;5.296;2023-11-19T00:20:13;21.42;;;5.03;;
68234;SDS011;55052;52.056;5.296;2023-11-19T00:22:42;21.20;;;4.70;;
68234;SDS011;55052;52.056;5.296;2023-11-19T00:25:11;17.02;;;4.63;;
68234;SDS011;55052;52.056;5.296;2023-11-19T00:27:39;21.05;;;5.03;;
68234;SDS011;55052;52.056;5.296;2023-11-19T00:30:06;16.65;;;4.85;;
68234;SDS011;55052;52.056;5.296;2023-11-19T00:32:36;19.25;;;5.00;;
68234;SDS011;55052;52.056;5.296;2023-11-19T00:35:05;23.05;;;4.60;;
68234;SDS011;55052;52.056;5.296;2023-11-19T00:37:33;18.42;;;4.32;;
68234;SDS011;55052;52.056;5.296;2023-11-19T00:40:00;23.77;;;4.78;;
68234;SDS011;55052;52.056;5.296;2023-11-19T00:42:31;19.33;;;4.25;;
68234;SDS011;55052;52.056;5.296;2023-11-19T00:44:58;16.92;;;3.63;;
68234;SDS011;55052;52.056;5.296;2023-11-19T00:47:25;15.25;;;3.75;;
68234;SDS011;55052;52.056;5.296;2023-11-19T00:49:52;19.60;;;3.80;;
68234;SDS011;55052;52.056;5.296;2023-11-19T00:52:19;20.63;;;4.20;;
68234;SDS011;55052;52.056;5.296;2023-11-19T00:54:46;20.80;;;4.00;;
68234;SDS011;55052;52.056;5.296;2023-11-19T00:57:13;20.08;;;4.97;;
68234;SDS011;55052;52.056;5.296;2023-11-19T00:59:43;25.15;;;4.40;;
68234;SDS011;55052;52.056;5.296;2023-11-19T01:02:10;26.10;;;4.68;;
68234;SDS011;55052;52.056;5.296;2023-11-19T01:04:37;20.48;;;4.65;;
68234;SDS011;55052;52.056;5.296;2023-11-19T01:07:05;22.40;;;4.40;;
68234;SDS011;55052;52.056;5.296;2023-11-19T01:09:41;20.75;;;4.00;;
68234;SDS011;55052;52.056;5.296;2023-11-19T01:12:09;21.15;;;5.45;;
68234;SDS011;55052;52.056;5.296;2023-11-19T01:17:05;21.88;;;4.05;;
68234;SDS011;55052;52.056;5.296;2023-11-19T01:19:33;25.80;;;4.35;;
68234;SDS011;55052;52.056;5.296;2023-11-19T01:22:00;29.42;;;4.78;;
68234;SDS011;55052;52.056;5.296;2023-11-19T01:24:27;24.75;;;4.15;;
68234;SDS011;55052;52.056;5.296;2023-11-19T01:26:55;28.75;;;4.05;;
68234;SDS011;55052;52.056;5.296;2023-11-19T01:29:24;27.85;;;4.32;;
68234;SDS011;55052;52.056;5.296;2023-11-19T01:31:51;34.03;;;4.18;;
68234;SDS011;55052;52.056;5.296;2023-11-19T01:34:18;32.88;;;4.60;;
68234;SDS011;55052;52.056;5.296;2023-11-19T01:36:46;29.65;;;4.78;;
68234;SDS011;55052;52.056;5.296;2023-11-19T01:39:15;32.10;;;5.38;;
68234;SDS011;55052;52.056;5.296;2023-11-19T01:41:46;28.38;;;4.35;;
68234;SDS011;55052;52.056;5.296;2023-11-19T01:44:13;32.13;;;5.28;;
68234;SDS011;55052;52.056;5.296;2023-11-19T01:46:40;30.73;;;5.40;;
68234;SDS011;55052;52.056;5.296;2023-11-19T01:51:38;22.98;;;4.32;;
68234;SDS011;55052;52.056;5.296;2023-11-19T01:54:06;28.08;;;4.15;;
68234;SDS011;55052;52.056;5.296;2023-11-19T01:56:34;20.80;;;4.10;;
68234;SDS011;55052;52.056;5.296;2023-11-19T01:59:03;24.77;;;4.63;;
68234;SDS011;55052;52.056;5.296;2023-11-19T02:01:30;32.95;;;4.80;;
68234;SDS011;55052;52.056;5.296;2023-11-19T02:04:01;34.92;;;4.85;;
68234;SDS011;55052;52.056;5.296;2023-11-19T02:06:28;31.33;;;5.28;;
68234;SDS011;55052;52.056;5.296;2023-11-19T02:08:56;30.30;;;6.07;;
68234;SDS011;55052;52.056;5.296;2023-11-19T02:11:23;33.05;;;6.10;;
68234;SDS011;55052;52.056;5.296;2023-11-19T02:13:55;34.00;;;4.60;;
68234;SDS011;55052;52.056;5.296;2023-11-19T02:16:23;30.35;;;4.93;;
68234;SDS011;55052;52.056;5.296;2023-11-19T02:18:50;37.55;;;5.57;;
68234;SDS011;55052;52.056;5.296;2023-11-19T02:21:16;33.80;;;5.05;;
68234;SDS011;55052;52.056;5.296;2023-11-19T02:23:44;30.08;;;5.03;;
68234;SDS011;55052;52.056;5.296;2023-11-19T02:26:18;33.38;;;5.50;;
68234;SDS011;55052;52.056;5.296;2023-11-19T02:28:58;30.17;;;4.80;;
68234;SDS011;55052;52.056;5.296;2023-11-19T02:31:25;39.78;;;5.88;;
68234;SDS011;55052;52.056;5.296;2023-11-19T02:33:53;33.55;;;4.80;;
68234;SDS011;55052;52.056;5.296;2023-11-19T02:36:21;39.95;;;5.80;;
68234;SDS011;55052;52.056;5.296;2023-11-19T02:38:48;37.95;;;5.38;;
68234;SDS011;55052;52.056;5.296;2023-11-19T02:41:14;34.80;;;5.63;;
68234;SDS011;55052;52.056;5.296;2023-11-19T02:43:41;20.33;;;4.63;;
68234;SDS011;55052;52.056;5.296;2023-11-19T02:46:08;39.90;;;5.25;;
68234;SDS011;55052;52.056;5.296;2023-11-19T02:48:38;35.95;;;5.68;;
68234;SDS011;55052;52.056;5.296;2023-11-19T02:51:05;28.80;;;4.07;;
68234;SDS011;55052;52.056;5.296;2023-11-19T02:53:35;35.03;;;6.22;;
68234;SDS011;55052;52.056;5.296;2023-11-19T02:56:06;35.40;;;5.95;;
68234;SDS011;55052;52.056;5.296;2023-11-19T02:58:52;35.85;;;5.53;;
68234;SDS011;55052;52.056;5.296;2023-11-19T03:01:26;38.08;;;6.43;;
68234;SDS011;55052;52.056;5.296;2023-11-19T03:03:57;39.83;;;5.22;;
68234;SDS011;55052;52.056;5.296;2023-11-19T03:06:25;40.05;;;5.88;;
68234;SDS011;55052;52.056;5.296;2023-11-19T03:08:52;38.40;;;6.35;;
68234;SDS011;55052;52.056;5.296;2023-11-19T03:11:19;38.13;;;5.85;;
68234;SDS011;55052;52.056;5.296;2023-11-19T03:13:46;39.50;;;6.03;;
68234;SDS011;55052;52.056;5.296;2023-11-19T03:16:13;37.25;;;6.00;;
68234;SDS011;55052;52.056;5.296;2023-11-19T03:18:40;35.35;;;5.93;;
68234;SDS011;55052;52.056;5.296;2023-11-19T03:21:07;37.67;;;6.22;;
68234;SDS011;55052;52.056;5.296;2023-11-19T03:23:36;31.70;;;6.13;;
68234;SDS011;55052;52.056;5.296;2023-11-19T03:26:03;37.13;;;5.60;;
68234;SDS011;55052;52.056;5.296;2023-11-19T03:28:32;40.17;;;5.88;;
68234;SDS011;55052;52.056;5.296;2023-11-19T03:30:59;39.33;;;5.63;;
68234;SDS011;55052;52.056;5.296;2023-11-19T03:33:26;36.85;;;5.80;;
68234;SDS011;55052;52.056;5.296;2023-11-19T03:35:55;32.70;;;6.18;;
68234;SDS011;55052;52.056;5.296;2023-11-19T03:38:23;33.33;;;5.55;;
68234;SDS011;55052;52.056;5.296;2023-11-19T03:40:53;42.88;;;7.97;;
68234;SDS011;55052;52.056;5.296;2023-11-19T03:43:20;37.90;;;5.93;;
68234;SDS011;55052;52.056;5.296;2023-11-19T03:45:46;36.95;;;6.18;;
68234;SDS011;55052;52.056;5.296;2023-11-19T03:48:14;35.92;;;5.43;;
68234;SDS011;55052;52.056;5.296;2023-11-19T03:50:45;39.97;;;6.13;;
68234;SDS011;55052;52.056;5.296;2023-11-19T03:53:12;35.70;;;5.10;;
68234;SDS011;55052;52.056;5.296;2023-11-19T03:55:39;37.22;;;6.45;;
68234;SDS011;55052;52.056;5.296;2023-11-19T03:58:06;39.45;;;5.80;;
68234;SDS011;55052;52.056;5.296;2023-11-19T04:00:33;46.95;;;6.85;;
68234;SDS011;55052;52.056;5.296;2023-11-19T04:03:00;43.65;;;7.60;;
68234;SDS011;55052;52.056;5.296;2023-11-19T04:05:27;38.88;;;5.97;;
68234;SDS011;55052;52.056;5.296;2023-11-19T04:07:54;41.75;;;5.63;;
68234;SDS011;55052;52.056;5.296;2023-11-19T04:10:21;44.15;;;5.57;;
68234;SDS011;55052;52.056;5.296;2023-11-19T04:12:49;33.67;;;6.05;;
68234;SDS011;55052;52.056;5.296;2023-11-19T04:15:16;33.33;;;5.90;;
68234;SDS011;55052;52.056;5.296;2023-11-19T04:17:42;39.33;;;6.63;;
68234;SDS011;55052;52.056;5.296;2023-11-19T04:20:10;40.15;;;6.82;;
68234;SDS011;55052;52.056;5.296;2023-11-19T04:22:41;36.80;;;6.32;;
68234;SDS011;55052;52.056;5.296;2023-11-19T04:25:08;38.17;;;6.13;;
68234;SDS011;55052;52.056;5.296;2023-11-19T04:27:35;36.33;;;5.38;;
68234;SDS011;55052;52.056;5.296;2023-11-19T04:30:02;36.75;;;5.55;;
68234;SDS011;55052;52.056;5.296;2023-11-19T04:32:30;41.00;;;6.00;;
68234;SDS011;55052;52.056;5.296;2023-11-19T04:34:56;38.83;;;5.65;;
68234;SDS011;55052;52.056;5.296;2023-11-19T04:37:23;32.95;;;5.45;;
68234;SDS011;55052;52.056;5.296;2023-11-19T04:39:51;44.22;;;6.00;;
68234;SDS011;55052;52.056;5.296;2023-11-19T04:42:17;38.35;;;5.43;;
68234;SDS011;55052;52.056;5.296;2023-11-19T04:44:44;35.47;;;5.68;;
68234;SDS011;55052;52.056;5.296;2023-11-19T04:47:11;35.08;;;4.95;;
68234;SDS011;55052;52.056;5.296;2023-11-19T04:49:41;38.92;;;6.35;;
68234;SDS011;55052;52.056;5.296;2023-11-19T04:52:09;34.13;;;6.05;;
68234;SDS011;55052;52.056;5.296;2023-11-19T04:54:36;44.47;;;5.55;;
68234;SDS011;55052;52.056;5.296;2023-11-19T04:57:10;44.05;;;7.20;;
68234;SDS011;55052;52.056;5.296;2023-11-19T04:59:37;31.42;;;5.43;;
68234;SDS011;55052;52.056;5.296;2023-11-19T05:02:04;38.30;;;5.47;;
68234;SDS011;55052;52.056;5.296;2023-11-19T05:04:31;29.80;;;5.43;;
68234;SDS011;55052;52.056;5.296;2023-11-19T05:06:58;44.50;;;6.20;;
68234;SDS011;55052;52.056;5.296;2023-11-19T05:09:25;31.05;;;5.65;;
68234;SDS011;55052;52.056;5.296;2023-11-19T05:11:52;30.05;;;4.68;;
68234;SDS011;55052;52.056;5.296;2023-11-19T05:14:20;36.35;;;5.63;;
68234;SDS011;55052;52.056;5.296;2023-11-19T05:16:47;44.20;;;5.85;;
68234;SDS011;55052;52.056;5.296;2023-11-19T05:19:15;42.60;;;6.28;;
68234;SDS011;55052;52.056;5.296;2023-11-19T05:21:42;31.92;;;5.90;;
68234;SDS011;55052;52.056;5.296;2023-11-19T05:24:10;41.63;;;6.70;;
68234;SDS011;55052;52.056;5.296;2023-11-19T05:26:40;42.47;;;5.80;;
68234;SDS011;55052;52.056;5.296;2023-11-19T05:29:07;36.92;;;6.25;;
68234;SDS011;55052;52.056;5.296;2023-11-19T05:31:34;36.90;;;5.55;;
68234;SDS011;55052;52.056;5.296;2023-11-19T05:34:03;41.40;;;5.68;;
68234;SDS011;55052;52.056;5.296;2023-11-19T05:36:30;39.00;;;6.85;;
68234;SDS011;55052;52.056;5.296;2023-11-19T05:38:57;39.58;;;6.47;;
68234;SDS011;55052;52.056;5.296;2023-11-19T05:41:24;45.75;;;6.88;;
68234;SDS011;55052;52.056;5.296;2023-11-19T05:43:51;39.88;;;5.80;;
68234;SDS011;55052;52.056;5.296;2023-11-19T05:46:18;46.40;;;6.55;;
68234;SDS011;55052;52.056;5.296;2023-11-19T05:48:46;39.88;;;5.97;;
68234;SDS011;55052;52.056;5.296;2023-11-19T05:51:14;41.40;;;6.53;;
68234;SDS011;55052;52.056;5.296;2023-11-19T05:53:43;41.55;;;6.10;;
68234;SDS011;55052;52.056;5.296;2023-11-19T05:56:12;45.88;;;7.05;;
68234;SDS011;55052;52.056;5.296;2023-11-19T05:58:39;42.45;;;6.75;;
68234;SDS011;55052;52.056;5.296;2023-11-19T06:01:06;39.83;;;5.38;;
68234;SDS011;55052;52.056;5.296;2023-11-19T06:03:34;40.85;;;6.22;;
68234;SDS011;55052;52.056;5.296;2023-11-19T06:06:03;51.80;;;6.20;;
68234;SDS011;55052;52.056;5.296;2023-11-19T06:08:31;40.63;;;5.70;;
68234;SDS011;55052;52.056;5.296;2023-11-19T06:10:58;40.80;;;6.47;;
68234;SDS011;55052;52.056;5.296;2023-11-19T06:13:27;50.63;;;6.70;;
68234;SDS011;55052;52.056;5.296;2023-11-19T06:15:54;40.85;;;6.40;;
68234;SDS011;55052;52.056;5.296;2023-11-19T06:18:20;37.72;;;5.32;;
68234;SDS011;55052;52.056;5.296;2023-11-19T06:20:47;50.08;;;7.43;;
68234;SDS011;55052;52.056;5.296;2023-11-19T06:23:15;39.90;;;6.57;;
68234;SDS011;55052;52.056;5.296;2023-11-19T06:25:42;36.35;;;6.75;;
68234;SDS011;55052;52.056;5.296;2023-11-19T06:28:09;35.00;;;6.75;;
68234;SDS011;55052;52.056;5.296;2023-11-19T06:30:36;41.15;;;6.47;;
68234;SDS011;55052;52.056;5.296;2023-11-19T06:33:03;34.20;;;6.20;;
68234;SDS011;55052;52.056;5.296;2023-11-19T06:35:30;34.65;;;5.72;;
68234;SDS011;55052;52.056;5.296;2023-11-19T06:38:02;35.75;;;5.47;;
68234;SDS011;55052;52.056;5.296;2023-11-19T06:40:32;45.35;;;5.95;;
68234;SDS011;55052;52.056;5.296;2023-11-19T06:43:01;40.38;;;6.22;;
68234;SDS011;55052;52.056;5.296;2023-11-19T06:45:34;35.35;;;6.20;;
68234;SDS011;55052;52.056;5.296;2023-11-19T06:48:03;35.03;;;5.07;;
68234;SDS011;55052;52.056;5.296;2023-11-19T06:50:31;41.60;;;5.82;;
68234;SDS011;55052;52.056;5.296;2023-11-19T06:52:58;40.25;;;6.82;;
68234;SDS011;55052;52.056;5.296;2023-11-19T06:55:26;41.92;;;7.38;;
68234;SDS011;55052;52.056;5.296;2023-11-19T06:57:53;44.88;;;6.00;;
68234;SDS011;55052;52.056;5.296;2023-11-19T07:00:20;44.38;;;6.70;;
68234;SDS011;55052;52.056;5.296;2023-11-19T07:02:47;39.28;;;7.07;;
68234;SDS011;55052;52.056;5.296;2023-11-19T07:05:14;43.10;;;7.30;;
68234;SDS011;55052;52.056;5.296;2023-11-19T07:07:41;45.22;;;6.65;;
68234;SDS011;55052;52.056;5.296;2023-11-19T07:10:08;41.58;;;5.60;;
68234;SDS011;55052;52.056;5.296;2023-11-19T07:12:36;38.47;;;5.93;;
68234;SDS011;55052;52.056;5.296;2023-11-19T07:15:03;35.22;;;5.30;;
68234;SDS011;55052;52.056;5.296;2023-11-19T07:17:30;45.75;;;7.07;;
68234;SDS011;55052;52.056;5.296;2023-11-19T07:19:57;39.33;;;7.03;;
68234;SDS011;55052;52.056;5.296;2023-11-19T07:22:26;37.05;;;6.80;;
68234;SDS011;55052;52.056;5.296;2023-11-19T07:24:55;38.05;;;5.30;;
68234;SDS011;55052;52.056;5.296;2023-11-19T07:27:22;31.65;;;5.25;;
68234;SDS011;55052;52.056;5.296;2023-11-19T07:29:51;39.20;;;6.07;;
68234;SDS011;55052;52.056;5.296;2023-11-19T07:32:18;51.67;;;6.95;;
68234;SDS011;55052;52.056;5.296;2023-11-19T07:34:45;35.38;;;6.38;;
68234;SDS011;55052;52.056;5.296;2023-11-19T07:37:12;44.30;;;5.72;;
68234;SDS011;55052;52.056;5.296;2023-11-19T07:39:38;35.75;;;6.20;;
68234;SDS011;55052;52.056;5.296;2023-11-19T07:42:07;34.72;;;5.15;;
68234;SDS011;55052;52.056;5.296;2023-11-19T07:44:36;42.42;;;5.93;;
68234;SDS011;55052;52.056;5.296;2023-11-19T07:47:03;38.10;;;6.63;;
68234;SDS011;55052;52.056;5.296;2023-11-19T07:49:30;40.70;;;6.18;;
68234;SDS011;55052;52.056;5.296;2023-11-19T07:51:57;42.72;;;7.30;;
68234;SDS011;55052;52.056;5.296;2023-11-19T07:54:24;37.28;;;5.25;;
68234;SDS011;55052;52.056;5.296;2023-11-19T07:56:51;31.90;;;6.38;;
68234;SDS011;55052;52.056;5.296;2023-11-19T07:59:17;42.28;;;5.75;;
68234;SDS011;55052;52.056;5.296;2023-11-19T08:01:44;41.47;;;5.25;;
68234;SDS011;55052;52.056;5.296;2023-11-19T08:04:11;32.67;;;5.00;;
68234;SDS011;55052;52.056;5.296;2023-11-19T08:06:38;36.45;;;5.95;;
68234;SDS011;55052;52.056;5.296;2023-11-19T08:09:05;37.83;;;4.93;;
68234;SDS011;55052;52.056;5.296;2023-11-19T08:11:33;43.35;;;6.05;;
68234;SDS011;55052;52.056;5.296;2023-11-19T08:14:00;40.05;;;5.63;;
68234;SDS011;55052;52.056;5.296;2023-11-19T08:16:27;43.70;;;6.55;;
68234;SDS011;55052;52.056;5.296;2023-11-19T08:18:54;42.08;;;6.03;;
68234;SDS011;55052;52.056;5.296;2023-11-19T08:21:20;39.13;;;5.45;;
68234;SDS011;55052;52.056;5.296;2023-11-19T08:23:49;34.40;;;5.78;;
68234;SDS011;55052;52.056;5.296;2023-11-19T08:26:15;37.03;;;5.35;;
68234;SDS011;55052;52.056;5.296;2023-11-19T08:28:47;43.35;;;6.72;;
68234;SDS011;55052;52.056;5.296;2023-11-19T08:31:14;33.88;;;6.15;;
68234;SDS011;55052;52.056;5.296;2023-11-19T08:33:41;39.75;;;6.00;;
68234;SDS011;55052;52.056;5.296;2023-11-19T08:36:08;37.58;;;6.07;;
68234;SDS011;55052;52.056;5.296;2023-11-19T08:38:35;35.42;;;4.95;;
68234;SDS011;55052;52.056;5.296;2023-11-19T08:41:02;34.70;;;6.05;;
68234;SDS011;55052;52.056;5.296;2023-11-19T08:43:29;35.55;;;5.90;;
68234;SDS011;55052;52.056;5.296;2023-11-19T08:45:58;33.25;;;5.35;;
68234;SDS011;55052;52.056;5.296;2023-11-19T08:48:24;41.10;;;5.97;;
68234;SDS011;55052;52.056;5.296;2023-11-19T08:50:52;31.48;;;5.22;;
68234;SDS011;55052;52.056;5.296;2023-11-19T08:53:19;38.85;;;5.72;;
68234;SDS011;55052;52.056;5.296;2023-11-19T08:55:46;33.67;;;5.82;;
68234;SDS011;55052;52.056;5.296;2023-11-19T08:58:12;41.83;;;5.47;;
68234;SDS011;55052;52.056;5.296;2023-11-19T09:00:39;45.53;;;6.75;;
68234;SDS011;55052;52.056;5.296;2023-11-19T09:03:06;34.22;;;5.60;;
68234;SDS011;55052;52.056;5.296;2023-11-19T09:05:35;42.05;;;5.75;;
68234;SDS011;55052;52.056;5.296;2023-11-19T09:08:03;36.50;;;5.70;;
68234;SDS011;55052;52.056;5.296;2023-11-19T09:10:30;31.50;;;5.85;;
68234;SDS011;55052;52.056;5.296;2023-11-19T09:12:57;29.65;;;6.00;;
68234;SDS011;55052;52.056;5.296;2023-11-19T09:15:24;41.10;;;6.45;;
68234;SDS011;55052;52.056;5.296;2023-11-19T09:17:51;32.40;;;5.75;;
68234;SDS011;55052;52.056;5.296;2023-11-19T09:20:18;32.00;;;4.88;;
68234;SDS011;55052;52.056;5.296;2023-11-19T09:22:45;35.05;;;5.53;;
68234;SDS011;55052;52.056;5.296;2023-11-19T09:25:12;36.70;;;5.90;;
68234;SDS011;55052;52.056;5.296;2023-11-19T09:27:43;28.98;;;5.03;;
68234;SDS011;55052;52.056;5.296;2023-11-19T09:30:10;35.55;;;6.10;;
68234;SDS011;55052;52.056;5.296;2023-11-19T09:32:39;34.75;;;5.35;;
68234;SDS011;55052;52.056;5.296;2023-11-19T09:35:07;41.25;;;5.13;;
68234;SDS011;55052;52.056;5.296;2023-11-19T09:37:34;32.00;;;5.05;;
68234;SDS011;55052;52.056;5.296;2023-11-19T09:40:01;31.73;;;4.72;;
68234;SDS011;55052;52.056;5.296;2023-11-19T09:42:28;29.23;;;5.20;;
68234;SDS011;55052;52.056;5.296;2023-11-19T09:44:57;34.20;;;5.38;;
68234;SDS011;55052;52.056;5.296;2023-11-19T09:47:25;34.28;;;4.85;;
68234;SDS011;55052;52.056;5.296;2023-11-19T09:49:54;32.05;;;5.75;;
68234;SDS011;55052;52.056;5.296;2023-11-19T09:52:24;34.55;;;5.63;;
68234;SDS011;55052;52.056;5.296;2023-11-19T09:54:51;33.63;;;4.75;;
68234;SDS011;55052;52.056;5.296;2023-11-19T09:57:18;39.17;;;4.97;;
68234;SDS011;55052;52.056;5.296;2023-11-19T09:59:45;39.42;;;5.78;;
68234;SDS011;55052;52.056;5.296;2023-11-19T10:02:13;36.45;;;5.50;;
68234;SDS011;55052;52.056;5.296;2023-11-19T10:04:41;34.45;;;5.97;;
68234;SDS011;55052;52.056;5.296;2023-11-19T10:07:10;36.47;;;5.20;;
68234;SDS011;55052;52.056;5.296;2023-11-19T10:09:38;36.08;;;5.68;;
68234;SDS011;55052;52.056;5.296;2023-11-19T10:12:05;34.13;;;4.93;;
68234;SDS011;55052;52.056;5.296;2023-11-19T10:14:32;35.50;;;5.72;;
68234;SDS011;55052;52.056;5.296;2023-11-19T10:17:06;28.98;;;5.45;;
68234;SDS011;55052;52.056;5.296;2023-11-19T10:19:34;32.80;;;5.80;;
68234;SDS011;55052;52.056;5.296;2023-11-19T10:22:04;34.53;;;5.10;;
68234;SDS011;55052;52.056;5.296;2023-11-19T10:27:08;33.80;;;4.80;;
68234;SDS011;55052;52.056;5.296;2023-11-19T10:29:38;28.08;;;4.93;;
68234;SDS011;55052;52.056;5.296;2023-11-19T10:32:05;40.65;;;6.13;;
68234;SDS011;55052;52.056;5.296;2023-11-19T10:34:52;32.28;;;5.85;;
68234;SDS011;55052;52.056;5.296;2023-11-19T10:37:28;29.80;;;4.53;;
68234;SDS011;55052;52.056;5.296;2023-11-19T10:42:26;28.00;;;4.35;;
68234;SDS011;55052;52.056;5.296;2023-11-19T10:44:53;29.35;;;5.43;;
68234;SDS011;55052;52.056;5.296;2023-11-19T10:47:20;33.25;;;5.53;;
68234;SDS011;55052;52.056;5.296;2023-11-19T10:49:52;35.83;;;5.50;;
68234;SDS011;55052;52.056;5.296;2023-11-19T10:52:19;32.60;;;5.00;;
68234;SDS011;55052;52.056;5.296;2023-11-19T10:54:49;31.23;;;5.35;;
68234;SDS011;55052;52.056;5.296;2023-11-19T10:57:20;32.78;;;4.45;;
68234;SDS011;55052;52.056;5.296;2023-11-19T10:59:48;39.58;;;5.68;;
68234;SDS011;55052;52.056;5.296;2023-11-19T11:04:47;35.55;;;5.32;;
68234;SDS011;55052;52.056;5.296;2023-11-19T11:07:16;32.90;;;5.75;;
68234;SDS011;55052;52.056;5.296;2023-11-19T11:09:52;27.60;;;5.03;;
68234;SDS011;55052;52.056;5.296;2023-11-19T11:12:21;33.30;;;5.85;;
68234;SDS011;55052;52.056;5.296;2023-11-19T11:14:50;31.85;;;5.85;;
68234;SDS011;55052;52.056;5.296;2023-11-19T11:17:19;30.27;;;5.25;;
68234;SDS011;55052;52.056;5.296;2023-11-19T11:19:50;28.95;;;4.72;;
68234;SDS011;55052;52.056;5.296;2023-11-19T11:22:17;40.40;;;5.20;;
68234;SDS011;55052;52.056;5.296;2023-11-19T11:30:46;33.78;;;5.50;;
68234;SDS011;55052;52.056;5.296;2023-11-19T11:38:47;36.55;;;5.47;;
68234;SDS011;55052;52.056;5.296;2023-11-19T11:41:16;33.97;;;6.30;;
68234;SDS011;55052;52.056;5.296;2023-11-19T11:48:59;31.58;;;5.30;;
68234;SDS011;55052;52.056;5.296;2023-11-19T11:59:36;29.98;;;4.85;;
68234;SDS011;55052;52.056;5.296;2023-11-19T12:02:03;30.95;;;4.80;;
68234;SDS011;55052;52.056;5.296;2023-11-19T12:04:34;28.80;;;4.72;;
68234;SDS011;55052;52.056;5.296;2023-11-19T12:09:45;25.58;;;4.95;;
68234;SDS011;55052;52.056;5.296;2023-11-19T12:12:21;26.13;;;4.43;;
68234;SDS011;55052;52.056;5.296;2023-11-19T12:19:59;31.23;;;5.00;;
68234;SDS011;55052;52.056;5.296;2023-11-19T12:22:27;26.35;;;4.78;;
68234;SDS011;55052;52.056;5.296;2023-11-19T12:24:54;24.48;;;4.25;;
68234;SDS011;55052;52.056;5.296;2023-11-19T12:27:22;25.70;;;4.30;;
68234;SDS011;55052;52.056;5.296;2023-11-19T12:29:49;24.67;;;5.10;;
68234;SDS011;55052;52.056;5.296;2023-11-19T12:32:16;28.90;;;4.43;;
68234;SDS011;55052;52.056;5.296;2023-11-19T12:34:45;25.98;;;4.90;;
68234;SDS011;55052;52.056;5.296;2023-11-19T12:37:12;22.65;;;4.22;;
68234;SDS011;55052;52.056;5.296;2023-11-19T12:39:38;29.95;;;4.95;;
68234;SDS011;55052;52.056;5.296;2023-11-19T12:42:06;26.15;;;4.55;;
68234;SDS011;55052;52.056;5.296;2023-11-19T12:44:33;26.02;;;4.05;;
68234;SDS011;55052;52.056;5.296;2023-11-19T12:47:01;30.75;;;4.75;;
68234;SDS011;55052;52.056;5.296;2023-11-19T12:49:33;28.50;;;4.68;;
68234;SDS011;55052;52.056;5.296;2023-11-19T12:52:00;28.73;;;5.13;;
68234;SDS011;55052;52.056;5.296;2023-11-19T12:54:37;25.50;;;4.55;;
68234;SDS011;55052;52.056;5.296;2023-11-19T12:57:04;24.33;;;4.90;;
68234;SDS011;55052;52.056;5.296;2023-11-19T12:59:31;27.52;;;4.72;;
68234;SDS011;55052;52.056;5.296;2023-11-19T13:01:58;28.88;;;4.50;;
68234;SDS011;55052;52.056;5.296;2023-11-19T13:04:29;26.85;;;5.00;;
68234;SDS011;55052;52.056;5.296;2023-11-19T13:06:59;30.15;;;5.97;;
68234;SDS011;55052;52.056;5.296;2023-11-19T13:09:29;25.65;;;4.43;;
68234;SDS011;55052;52.056;5.296;2023-11-19T13:11:57;29.70;;;5.20;;
68234;SDS011;55052;52.056;5.296;2023-11-19T13:14:35;35.55;;;5.47;;
68234;SDS011;55052;52.056;5.296;2023-11-19T13:17:04;28.52;;;5.07;;
68234;SDS011;55052;52.056;5.296;2023-11-19T13:19:32;23.40;;;4.05;;
68234;SDS011;55052;52.056;5.296;2023-11-19T13:21:59;31.63;;;4.53;;
68234;SDS011;55052;52.056;5.296;2023-11-19T13:24:25;27.45;;;5.82;;
68234;SDS011;55052;52.056;5.296;2023-11-19T13:26:52;26.80;;;4.72;;
68234;SDS011;55052;52.056;5.296;2023-11-19T13:29:19;35.97;;;5.43;;
68234;SDS011;55052;52.056;5.296;2023-11-19T13:31:45;31.77;;;6.30;;
68234;SDS011;55052;52.056;5.296;2023-11-19T13:34:12;31.60;;;4.72;;
68234;SDS011;55052;52.056;5.296;2023-11-19T13:36:39;36.28;;;5.78;;
68234;SDS011;55052;52.056;5.296;2023-11-19T13:39:06;32.13;;;5.20;;
68234;SDS011;55052;52.056;5.296;2023-11-19T13:41:33;30.80;;;5.60;;
68234;SDS011;55052;52.056;5.296;2023-11-19T13:44:00;24.65;;;4.10;;
68234;SDS011;55052;52.056;5.296;2023-11-19T13:46:27;22.65;;;4.50;;
68234;SDS011;55052;52.056;5.296;2023-11-19T13:48:54;28.25;;;4.57;;
68234;SDS011;55052;52.056;5.296;2023-11-19T13:51:20;27.85;;;4.35;;
68234;SDS011;55052;52.056;5.296;2023-11-19T13:53:47;23.00;;;4.35;;
68234;SDS011;55052;52.056;5.296;2023-11-19T13:56:17;28.95;;;4.03;;
68234;SDS011;55052;52.056;5.296;2023-11-19T13:58:44;29.77;;;4.47;;
68234;SDS011;55052;52.056;5.296;2023-11-19T14:01:11;29.40;;;4.63;;
68234;SDS011;55052;52.056;5.296;2023-11-19T14:03:39;30.15;;;4.22;;
68234;SDS011;55052;52.056;5.296;2023-11-19T14:06:08;24.10;;;4.75;;
68234;SDS011;55052;52.056;5.296;2023-11-19T14:08:35;29.20;;;5.68;;
68234;SDS011;55052;52.056;5.296;2023-11-19T14:11:02;28.30;;;4.15;;
68234;SDS011;55052;52.056;5.296;2023-11-19T14:13:29;24.60;;;4.00;;
68234;SDS011;55052;52.056;5.296;2023-11-19T14:15:56;28.33;;;4.97;;
68234;SDS011;55052;52.056;5.296;2023-11-19T14:18:23;26.27;;;4.78;;
68234;SDS011;55052;52.056;5.296;2023-11-19T14:20:50;26.30;;;4.38;;
68234;SDS011;55052;52.056;5.296;2023-11-19T14:23:16;29.45;;;4.28;;
68234;SDS011;55052;52.056;5.296;2023-11-19T14:25:43;28.38;;;4.28;;
68234;SDS011;55052;52.056;5.296;2023-11-19T14:28:10;23.20;;;3.97;;
68234;SDS011;55052;52.056;5.296;2023-11-19T14:30:37;32.20;;;5.00;;
68234;SDS011;55052;52.056;5.296;2023-11-19T14:33:04;25.75;;;4.38;;
68234;SDS011;55052;52.056;5.296;2023-11-19T14:35:31;25.10;;;4.15;;
68234;SDS011;55052;52.056;5.296;2023-11-19T14:38:00;28.83;;;4.85;;
68234;SDS011;55052;52.056;5.296;2023-11-19T14:40:31;27.98;;;4.43;;
68234;SDS011;55052;52.056;5.296;2023-11-19T14:43:00;29.00;;;4.85;;
68234;SDS011;55052;52.056;5.296;2023-11-19T14:45:27;30.95;;;4.65;;
68234;SDS011;55052;52.056;5.296;2023-11-19T14:48:04;25.25;;;4.47;;
68234;SDS011;55052;52.056;5.296;2023-11-19T14:50:32;28.55;;;5.25;;
68234;SDS011;55052;52.056;5.296;2023-11-19T14:52:59;24.27;;;4.38;;
68234;SDS011;55052;52.056;5.296;2023-11-19T14:55:26;31.98;;;5.57;;
68234;SDS011;55052;52.056;5.296;2023-11-19T14:57:53;28.17;;;4.65;;
68234;SDS011;55052;52.056;5.296;2023-11-19T15:00:33;28.10;;;4.68;;
68234;SDS011;55052;52.056;5.296;2023-11-19T15:03:00;34.22;;;5.22;;
68234;SDS011;55052;52.056;5.296;2023-11-19T15:05:27;25.30;;;4.80;;
68234;SDS011;55052;52.056;5.296;2023-11-19T15:07:55;32.83;;;4.82;;
68234;SDS011;55052;52.056;5.296;2023-11-19T15:10:22;26.38;;;4.05;;
68234;SDS011;55052;52.056;5.296;2023-11-19T15:12:51;29.27;;;4.47;;
68234;SDS011;55052;52.056;5.296;2023-11-19T15:15:19;29.77;;;6.28;;
68234;SDS011;55052;52.056;5.296;2023-11-19T15:17:49;34.40;;;7.90;;
68234;SDS011;55052;52.056;5.296;2023-11-19T15:20:16;22.20;;;4.30;;
68234;SDS011;55052;52.056;5.296;2023-11-19T15:22:45;32.13;;;4.85;;
68234;SDS011;55052;52.056;5.296;2023-11-19T15:25:12;23.42;;;5.97;;